Time;durP1;ratioP1;P1;durP2;ratioP2;P2;SDS_P1;SDS_P2;PMS_P1;PMS_P2;Temp;Humidity;BMP_temperature;BMP_pressure;BME280_temperature;BME280_humidity;BME280_pressure;Samples;Min_cycle;Max_cycle;Signal;HPM_P1;HPM_P2
2023/07/01 00:01:40;;;;;;;4.90;4.07;;;18.60;99.90;;;;;;4941462;29;20023;-63
2023/07/01 00:04:05;;;;;;;7.32;4.05;;;18.60;99.90;;;;;;4943978;29;20549;-63
2023/07/01 00:06:31;;;;;;;7.20;4.60;;;18.60;99.90;;;;;;4941738;29;20035;-63
2023/07/01 00:08:57;;;;;;;6.18;3.90;;;18.60;99.90;;;;;;4943573;29;20099;-63
2023/07/01 00:11:23;;;;;;;6.10;4.18;;;18.60;99.90;;;;;;4937992;29;20050;-63
2023/07/01 00:13:49;;;;;;;5.05;4.22;;;18.60;99.90;;;;;;4939910;29;20046;-63
2023/07/01 00:16:14;;;;;;;5.90;4.10;;;18.60;99.90;;;;;;4938523;29;20044;-63
2023/07/01 00:18:42;;;;;;;6.20;4.57;;;18.60;99.90;;;;;;4949073;29;20023;-63
2023/07/01 00:21:08;;;;;;;5.88;4.65;;;18.50;99.90;;;;;;4922711;29;20175;-63
2023/07/01 00:23:34;;;;;;;6.70;4.85;;;18.50;99.90;;;;;;4942535;29;20035;-63
2023/07/01 00:26:01;;;;;;;6.70;4.50;;;18.50;99.90;;;;;;4941352;29;20184;-63
2023/07/01 00:28:27;;;;;;;7.55;4.82;;;18.50;99.90;;;;;;4938272;29;20058;-64
2023/07/01 00:30:52;;;;;;;4.75;4.25;;;18.50;99.90;;;;;;4921553;29;20841;-63
2023/07/01 00:33:18;;;;;;;4.75;4.28;;;18.50;99.90;;;;;;4938779;29;20050;-63
2023/07/01 00:35:45;;;;;;;7.63;4.30;;;18.50;99.90;;;;;;4923758;29;20035;-63
2023/07/01 00:38:11;;;;;;;6.20;4.10;;;18.50;99.90;;;;;;4919557;29;20027;-63
2023/07/01 00:40:37;;;;;;;3.88;3.58;;;18.50;99.90;;;;;;4942439;29;20507;-63
2023/07/01 00:43:03;;;;;;;6.75;4.28;;;18.40;99.90;;;;;;4928165;29;20083;-63
2023/07/01 00:45:28;;;;;;;6.15;4.47;;;18.40;99.90;;;;;;4937491;29;20571;-63
2023/07/01 00:47:54;;;;;;;7.07;4.22;;;18.40;99.90;;;;;;4939153;29;20050;-63
2023/07/01 00:50:21;;;;;;;4.57;4.18;;;18.40;99.90;;;;;;4935548;29;20042;-63
2023/07/01 00:52:46;;;;;;;6.20;4.38;;;18.40;99.90;;;;;;4937172;28;20129;-63
2023/07/01 00:55:13;;;;;;;6.53;4.45;;;18.40;99.90;;;;;;4943682;29;20031;-63
2023/07/01 00:57:39;;;;;;;6.95;3.95;;;18.40;99.90;;;;;;4922942;29;20087;-63
2023/07/01 01:00:10;;;;;;;5.75;4.90;;;18.40;99.90;;;;;;4941604;29;20023;-63
2023/07/01 01:03:00;;;;;;;5.30;4.50;;;18.40;99.90;;;;;;4939350;29;20038;-63
2023/07/01 01:05:34;;;;;;;4.75;4.35;;;18.40;99.90;;;;;;4937339;29;20051;-63
2023/07/01 01:08:08;;;;;;;4.63;4.22;;;18.40;99.90;;;;;;4926443;29;20082;-63
2023/07/01 01:10:37;;;;;;;4.50;4.10;;;18.40;99.90;;;;;;4935862;29;20050;-63
2023/07/01 01:13:04;;;;;;;5.65;4.07;;;18.40;99.90;;;;;;4943733;29;20034;-63
2023/07/01 01:15:31;;;;;;;5.40;4.50;;;18.40;99.90;;;;;;4924143;29;20104;-63
2023/07/01 01:18:04;;;;;;;5.00;4.50;;;18.40;99.90;;;;;;4941623;29;20023;-63
2023/07/01 01:20:34;;;;;;;4.75;4.25;;;18.40;99.90;;;;;;4939293;29;20028;-63
2023/07/01 01:23:24;;;;;;;4.63;4.15;;;18.40;99.90;;;;;;4936442;29;20050;-63
2023/07/01 01:25:55;;;;;;;5.05;4.00;;;18.40;99.90;;;;;;4917388;29;20031;-63
2023/07/01 01:28:21;;;;;;;5.28;4.10;;;18.40;99.90;;;;;;4937613;29;20779;-63
2023/07/01 01:30:47;;;;;;;4.90;4.30;;;18.30;99.90;;;;;;4943347;29;20055;-63
2023/07/01 01:33:13;;;;;;;4.70;4.18;;;18.30;99.90;;;;;;4938996;29;20624;-63
2023/07/01 01:35:40;;;;;;;4.97;4.53;;;18.30;99.90;;;;;;4934128;29;20526;-63
2023/07/01 01:38:11;;;;;;;4.78;4.32;;;18.30;99.90;;;;;;4920160;29;20028;-63
2023/07/01 01:40:44;;;;;;;4.32;3.92;;;18.30;99.90;;;;;;4926902;29;20050;-63
2023/07/01 01:43:26;;;;;;;4.80;4.13;;;18.30;99.90;;;;;;4935470;29;20137;-63
2023/07/01 01:45:53;;;;;;;7.40;4.85;;;18.30;99.90;;;;;;4934234;29;20066;-63
2023/07/01 01:48:19;;;;;;;5.13;4.63;;;18.30;99.90;;;;;;4943050;29;20046;-63
2023/07/01 01:50:50;;;;;;;7.70;4.45;;;18.20;99.90;;;;;;4940278;29;20032;-63
2023/07/01 01:53:18;;;;;;;6.57;4.93;;;18.30;99.90;;;;;;4922402;29;20605;-63
2023/07/01 01:55:45;;;;;;;6.70;5.03;;;18.20;99.90;;;;;;4922722;29;20027;-63
2023/07/01 01:58:11;;;;;;;6.45;4.43;;;18.20;99.90;;;;;;4924849;29;20038;-63
2023/07/01 02:00:37;;;;;;;5.70;4.68;;;18.20;99.90;;;;;;4921702;29;20027;-63
2023/07/01 02:03:02;;;;;;;6.78;4.40;;;18.20;99.90;;;;;;4917259;29;20129;-63
2023/07/01 02:05:28;;;;;;;8.07;4.90;;;18.20;99.90;;;;;;4921458;29;20081;-63
2023/07/01 02:07:55;;;;;;;4.30;3.90;;;18.20;99.90;;;;;;4926621;29;20076;-63
2023/07/01 02:10:21;;;;;;;9.95;5.20;;;18.20;99.90;;;;;;4938552;29;20136;-63
2023/07/01 02:12:48;;;;;;;10.13;5.30;;;18.20;99.90;;;;;;4922551;29;20114;-63
2023/07/01 02:15:14;;;;;;;5.50;4.60;;;18.20;99.90;;;;;;4924271;29;20119;-63
2023/07/01 02:17:40;;;;;;;5.53;4.25;;;18.10;99.90;;;;;;4934990;29;20027;-63
2023/07/01 02:20:06;;;;;;;5.60;4.70;;;18.10;99.90;;;;;;4934915;29;20063;-63
2023/07/01 02:22:32;;;;;;;4.65;4.20;;;18.10;99.90;;;;;;4938715;29;20035;-63
2023/07/01 02:24:58;;;;;;;6.00;4.72;;;18.10;99.90;;;;;;4925460;29;20031;-62
2023/07/01 02:27:24;;;;;;;6.10;4.90;;;18.10;99.90;;;;;;4925662;29;20032;-63
2023/07/01 02:29:50;;;;;;;5.03;4.53;;;18.10;99.90;;;;;;4926521;29;20107;-63
2023/07/01 02:32:16;;;;;;;5.63;4.90;;;18.00;99.90;;;;;;4935396;29;20143;-63
2023/07/01 02:34:42;;;;;;;6.53;4.85;;;18.00;99.90;;;;;;4926430;29;20495;-63
2023/07/01 02:37:07;;;;;;;5.72;5.13;;;18.00;99.90;;;;;;4934755;29;20126;-63
2023/07/01 02:39:33;;;;;;;5.25;4.75;;;18.00;99.90;;;;;;4940293;29;20799;-63
2023/07/01 02:41:59;;;;;;;7.88;5.45;;;18.00;99.90;;;;;;4946403;29;20507;-63
2023/07/01 02:44:26;;;;;;;6.28;4.93;;;18.00;99.90;;;;;;4944109;29;20024;-63
2023/07/01 02:46:52;;;;;;;5.70;5.10;;;18.00;99.90;;;;;;4926940;29;20499;-63
2023/07/01 02:49:20;;;;;;;7.35;5.63;;;18.00;99.90;;;;;;4940995;29;20039;-63
2023/07/01 02:51:46;;;;;;;6.38;5.70;;;18.00;99.90;;;;;;4924478;29;20258;-63
2023/07/01 02:54:12;;;;;;;6.00;5.30;;;18.00;99.90;;;;;;4925731;29;20511;-63
2023/07/01 02:56:37;;;;;;;7.90;5.85;;;18.00;99.90;;;;;;4938017;29;20511;-63
2023/07/01 02:59:06;;;;;;;8.65;6.50;;;18.00;99.90;;;;;;4929334;29;20594;-63
2023/07/01 03:01:32;;;;;;;5.65;5.10;;;18.00;99.90;;;;;;4925622;29;20036;-63
2023/07/01 03:03:57;;;;;;;6.53;5.90;;;18.00;99.90;;;;;;4943339;29;20026;-63
2023/07/01 03:06:23;;;;;;;6.10;5.50;;;18.00;99.90;;;;;;4923993;29;20028;-63
2023/07/01 03:08:49;;;;;;;8.13;5.30;;;18.00;99.90;;;;;;4939700;29;20501;-63
2023/07/01 03:11:15;;;;;;;7.30;5.88;;;18.00;99.90;;;;;;4935305;29;20090;-63
2023/07/01 03:13:41;;;;;;;6.22;5.47;;;18.00;99.90;;;;;;4939013;29;20031;-63
2023/07/01 03:16:07;;;;;;;17.20;6.20;;;17.90;99.90;;;;;;4942588;29;20117;-63
2023/07/01 03:18:33;;;;;;;6.00;5.40;;;17.90;99.90;;;;;;4944463;29;20495;-63
2023/07/01 03:21:00;;;;;;;6.45;5.57;;;17.90;99.90;;;;;;4944027;29;20038;-63
2023/07/01 03:23:28;;;;;;;8.88;6.78;;;17.90;99.90;;;;;;4939514;28;20075;-63
2023/07/01 03:25:53;;;;;;;6.97;6.20;;;17.90;99.90;;;;;;4937485;29;20437;-63
2023/07/01 03:28:20;;;;;;;6.20;5.60;;;17.80;99.90;;;;;;4921688;29;20032;-63
2023/07/01 03:30:46;;;;;;;6.30;5.10;;;17.80;99.90;;;;;;4938200;29;20043;-63
2023/07/01 03:33:12;;;;;;;7.78;5.38;;;17.80;99.90;;;;;;4942888;28;20342;-63
2023/07/01 03:35:39;;;;;;;6.53;5.55;;;17.80;99.90;;;;;;4944953;29;20042;-63
2023/07/01 03:38:04;;;;;;;6.90;6.20;;;17.80;99.90;;;;;;4937492;29;20038;-63
2023/07/01 03:40:31;;;;;;;6.93;6.20;;;17.80;99.90;;;;;;4941485;29;20028;-63
2023/07/01 03:42:56;;;;;;;6.30;5.70;;;17.90;99.90;;;;;;4941674;29;20031;-63
2023/07/01 03:45:22;;;;;;;8.07;6.22;;;17.90;99.90;;;;;;4938667;29;20071;-63
2023/07/01 03:47:48;;;;;;;7.22;6.53;;;17.90;99.90;;;;;;4939594;29;20451;-63
2023/07/01 03:50:15;;;;;;;6.90;6.07;;;18.00;99.90;;;;;;4938658;29;20450;-63
2023/07/01 03:52:41;;;;;;;10.32;7.22;;;18.00;99.90;;;;;;4941034;29;20376;-63
2023/07/01 03:55:11;;;;;;;11.60;6.78;;;18.10;99.90;;;;;;4940348;29;20091;-63
2023/07/01 03:57:37;;;;;;;6.75;6.05;;;18.10;99.90;;;;;;4939476;29;20114;-63
2023/07/01 04:00:17;;;;;;;6.88;6.28;;;18.20;99.90;;;;;;4926371;29;20106;-63
2023/07/01 04:02:50;;;;;;;9.15;7.05;;;18.20;99.90;;;;;;4939263;29;20035;-63
2023/07/01 04:05:17;;;;;;;7.97;6.97;;;18.30;99.90;;;;;;4935281;29;20488;-63
2023/07/01 04:07:45;;;;;;;6.90;6.20;;;18.40;99.90;;;;;;4942170;29;20434;-63
2023/07/01 04:10:11;;;;;;;8.25;7.15;;;18.40;99.90;;;;;;4945287;29;20375;-63
2023/07/01 04:12:38;;;;;;;7.30;6.50;;;18.40;99.90;;;;;;4943410;29;20860;-63
2023/07/01 04:15:09;;;;;;;6.80;6.13;;;18.40;99.90;;;;;;4942381;29;20039;-64
2023/07/01 04:17:46;;;;;;;8.25;6.03;;;18.40;99.90;;;;;;4941501;29;20039;-63
2023/07/01 04:20:13;;;;;;;9.07;6.57;;;18.30;99.90;;;;;;4937963;29;20071;-63
2023/07/01 04:22:39;;;;;;;6.78;6.07;;;18.30;99.90;;;;;;4939271;29;20495;-63
2023/07/01 04:25:06;;;;;;;9.07;6.10;;;18.30;99.90;;;;;;4935242;29;20119;-63
2023/07/01 04:27:32;;;;;;;6.43;5.82;;;18.20;99.90;;;;;;4944035;29;20118;-63
2023/07/01 04:29:58;;;;;;;6.30;5.60;;;18.20;99.90;;;;;;4944033;29;20035;-62
2023/07/01 04:32:24;;;;;;;6.25;5.65;;;18.20;99.90;;;;;;4941216;29;20705;-62
2023/07/01 04:34:50;;;;;;;7.80;5.97;;;18.20;99.90;;;;;;4941951;29;20063;-63
2023/07/01 04:37:15;;;;;;;7.22;6.53;;;18.20;99.90;;;;;;4937907;29;20066;-63
2023/07/01 04:39:42;;;;;;;9.90;6.07;;;18.20;99.90;;;;;;4939752;29;20056;-63
2023/07/01 04:42:08;;;;;;;6.82;6.10;;;18.20;99.90;;;;;;4935453;29;20023;-63
2023/07/01 04:44:33;;;;;;;6.47;5.53;;;18.30;99.90;;;;;;4944503;28;20050;-63
2023/07/01 04:46:59;;;;;;;6.38;5.65;;;18.30;99.90;;;;;;4944154;29;20066;-62
2023/07/01 04:49:25;;;;;;;6.75;5.75;;;18.40;99.90;;;;;;4940606;29;20507;-63
2023/07/01 04:51:51;;;;;;;7.95;5.88;;;18.50;99.90;;;;;;4941681;29;20111;-62
2023/07/01 04:54:17;;;;;;;6.10;5.30;;;18.50;99.90;;;;;;4938251;29;20500;-63
2023/07/01 04:56:43;;;;;;;7.88;5.88;;;18.50;99.90;;;;;;4940030;29;20028;-62
2023/07/01 04:59:09;;;;;;;8.23;6.13;;;18.60;99.90;;;;;;4941224;29;20416;-63
2023/07/01 05:01:35;;;;;;;6.28;5.35;;;18.60;99.90;;;;;;4940266;29;20839;-63
2023/07/01 05:04:00;;;;;;;9.57;6.68;;;18.60;99.90;;;;;;4940566;29;20046;-63
2023/07/01 05:06:26;;;;;;;7.10;5.75;;;18.60;99.90;;;;;;4936407;29;20118;-63
2023/07/01 05:08:53;;;;;;;7.55;6.75;;;18.60;99.90;;;;;;4941779;29;20058;-63
2023/07/01 05:11:19;;;;;;;7.10;4.85;;;18.60;99.90;;;;;;4936053;29;20058;-63
2023/07/01 05:13:45;;;;;;;10.45;5.45;;;18.50;99.90;;;;;;4937602;29;20023;-63
2023/07/01 05:16:11;;;;;;;5.95;5.15;;;18.50;99.90;;;;;;4935597;29;20065;-63
2023/07/01 05:18:37;;;;;;;7.75;5.63;;;18.50;99.90;;;;;;4927787;29;20031;-63
2023/07/01 05:21:03;;;;;;;7.20;5.88;;;18.50;99.90;;;;;;4943827;29;20126;-63
2023/07/01 05:23:29;;;;;;;5.63;5.13;;;18.50;99.90;;;;;;4938630;29;20032;-63
2023/07/01 05:25:54;;;;;;;7.40;5.65;;;18.60;99.90;;;;;;4936562;29;20039;-63
2023/07/01 05:28:20;;;;;;;6.28;5.68;;;18.60;99.90;;;;;;4939113;29;20035;-63
2023/07/01 05:30:46;;;;;;;7.10;5.30;;;18.80;99.90;;;;;;4939711;29;20405;-63
2023/07/01 05:33:12;;;;;;;10.05;6.07;;;18.80;99.90;;;;;;4936185;29;20035;-63
2023/07/01 05:35:38;;;;;;;7.30;5.07;;;18.80;99.90;;;;;;4937463;29;20035;-63
2023/07/01 05:38:12;;;;;;;8.77;5.57;;;18.80;99.90;;;;;;4940645;29;20487;-63
2023/07/01 05:40:39;;;;;;;7.05;5.18;;;18.90;99.90;;;;;;4931759;29;20034;-63
2023/07/01 05:43:05;;;;;;;5.60;4.88;;;18.90;99.90;;;;;;4943022;29;20073;-63
2023/07/01 05:45:31;;;;;;;7.55;4.95;;;19.00;99.90;;;;;;4939768;29;20071;-63
2023/07/01 05:47:57;;;;;;;7.88;5.22;;;19.00;99.90;;;;;;4939708;29;20119;-63
2023/07/01 05:50:23;;;;;;;7.03;4.70;;;19.00;99.90;;;;;;4936187;29;20227;-63
2023/07/01 05:52:49;;;;;;;5.35;4.82;;;19.00;99.90;;;;;;4936736;29;20090;-63
2023/07/01 05:55:14;;;;;;;7.15;4.63;;;19.00;99.90;;;;;;4939961;29;20419;-63
2023/07/01 05:57:40;;;;;;;5.28;4.70;;;19.00;99.90;;;;;;4941605;29;20035;-63
2023/07/01 06:00:08;;;;;;;5.93;4.78;;;19.00;99.90;;;;;;4942168;29;20122;-63
2023/07/01 06:02:40;;;;;;;7.50;4.70;;;19.10;99.90;;;;;;4941375;29;20051;-63
2023/07/01 06:05:07;;;;;;;5.15;4.65;;;19.10;99.90;;;;;;4938062;29;20035;-63
2023/07/01 06:07:33;;;;;;;4.95;4.22;;;19.20;99.90;;;;;;4938008;29;20126;-63
2023/07/01 06:09:59;;;;;;;8.10;4.45;;;19.20;99.90;;;;;;4937674;29;20139;-63
2023/07/01 06:12:26;;;;;;;5.80;4.90;;;19.30;99.90;;;;;;4939955;29;20047;-63
2023/07/01 06:14:52;;;;;;;5.60;4.10;;;19.40;99.90;;;;;;4945119;28;20079;-63
2023/07/01 06:17:17;;;;;;;6.00;4.03;;;19.40;99.90;;;;;;4943690;29;20838;-63
2023/07/01 06:19:43;;;;;;;4.22;3.83;;;19.50;99.90;;;;;;4943400;29;20038;-63
2023/07/01 06:22:09;;;;;;;5.07;3.70;;;19.60;99.90;;;;;;4940437;29;20499;-63
2023/07/01 06:24:34;;;;;;;5.00;3.80;;;19.60;99.90;;;;;;4940683;29;20562;-63
2023/07/01 06:27:00;;;;;;;4.05;3.60;;;19.70;99.90;;;;;;4938539;29;20356;-63
2023/07/01 06:29:27;;;;;;;7.45;3.10;;;19.70;99.90;;;;;;4937879;29;20043;-63
2023/07/01 06:31:53;;;;;;;6.93;3.25;;;19.80;99.90;;;;;;4946844;29;20822;-63
2023/07/01 06:34:18;;;;;;;6.47;3.22;;;19.90;99.90;;;;;;4944615;29;20119;-63
2023/07/01 06:36:44;;;;;;;9.90;3.60;;;19.90;99.90;;;;;;4944766;29;20061;-63
2023/07/01 06:39:12;;;;;;;4.95;3.25;;;20.00;99.90;;;;;;4942213;29;20035;-63
2023/07/01 06:41:38;;;;;;;5.10;3.47;;;20.10;99.90;;;;;;4941910;29;20039;-63
2023/07/01 06:44:06;;;;;;;3.22;2.35;;;20.10;99.90;;;;;;4921657;29;20038;-63
2023/07/01 06:46:32;;;;;;;4.03;2.72;;;20.20;99.90;;;;;;4939286;29;20032;-63
2023/07/01 06:48:58;;;;;;;2.88;2.53;;;20.20;99.90;;;;;;4944204;29;20046;-63
2023/07/01 06:51:24;;;;;;;4.30;2.72;;;20.30;99.90;;;;;;4941203;29;20043;-63
2023/07/01 06:53:49;;;;;;;3.90;2.60;;;20.30;99.90;;;;;;4937934;29;20574;-63
2023/07/01 06:56:15;;;;;;;6.88;2.63;;;20.40;99.90;;;;;;4943125;29;20578;-62
2023/07/01 06:58:41;;;;;;;4.13;3.00;;;20.60;99.90;;;;;;4937130;29;20537;-63
2023/07/01 07:01:07;;;;;;;2.50;2.30;;;20.80;99.90;;;;;;4940145;29;20822;-64
2023/07/01 07:03:33;;;;;;;2.92;2.13;;;21.00;99.90;;;;;;4938330;29;20032;-63
2023/07/01 07:06:00;;;;;;;3.80;2.90;;;21.20;99.90;;;;;;4943223;29;20031;-63
2023/07/01 07:08:26;;;;;;;7.65;2.97;;;21.50;99.90;;;;;;4945270;29;20039;-63
2023/07/01 07:10:52;;;;;;;3.85;2.13;;;21.70;99.90;;;;;;4944155;29;20471;-63
2023/07/01 07:13:18;;;;;;;2.35;1.67;;;21.90;98.90;;;;;;4941265;29;20138;-63
2023/07/01 07:15:44;;;;;;;5.43;2.40;;;21.90;97.40;;;;;;4941592;29;20027;-63
2023/07/01 07:18:10;;;;;;;3.25;1.92;;;22.00;97.60;;;;;;4939146;29;20095;-63
2023/07/01 07:20:37;;;;;;;3.67;2.20;;;22.00;96.10;;;;;;4939301;29;20751;-63
2023/07/01 07:23:05;;;;;;;2.97;1.70;;;22.10;97.00;;;;;;4938781;29;20813;-64
2023/07/01 07:25:32;;;;;;;4.32;1.40;;;22.20;96.30;;;;;;4944693;28;20036;-63
2023/07/01 07:27:58;;;;;;;3.17;1.48;;;22.10;94.00;;;;;;4943653;29;20039;-63
2023/07/01 07:30:24;;;;;;;3.47;1.60;;;22.10;95.10;;;;;;4935642;29;20059;-68
2023/07/01 07:32:49;;;;;;;1.77;1.52;;;22.10;93.70;;;;;;4940814;29;20031;-63
2023/07/01 07:35:15;;;;;;;2.00;1.40;;;22.20;94.40;;;;;;4938387;29;20159;-63
2023/07/01 07:37:41;;;;;;;3.05;1.40;;;22.20;93.50;;;;;;4943349;29;20833;-63
2023/07/01 07:40:08;;;;;;;2.53;1.40;;;22.30;94.10;;;;;;4935756;29;20031;-63
2023/07/01 07:42:35;;;;;;;1.75;1.27;;;22.40;92.90;;;;;;4944507;29;20474;-63
2023/07/01 07:45:02;;;;;;;4.43;1.30;;;22.40;93.00;;;;;;4944201;29;20039;-63
2023/07/01 07:47:28;;;;;;;3.45;1.30;;;22.40;92.50;;;;;;4942369;29;20055;-63
2023/07/01 07:49:54;;;;;;;2.75;1.23;;;22.30;92.10;;;;;;4944345;29;20024;-63
2023/07/01 07:52:19;;;;;;;6.78;1.42;;;22.20;92.20;;;;;;4932235;29;20120;-63
2023/07/01 07:54:46;;;;;;;4.30;1.40;;;22.10;93.00;;;;;;4939928;29;20031;-63
2023/07/01 07:57:13;;;;;;;3.17;1.15;;;22.20;93.00;;;;;;4937421;29;20031;-63
2023/07/01 07:59:42;;;;;;;2.55;1.30;;;22.20;91.20;;;;;;4945544;29;20035;-62
2023/07/01 08:02:08;;;;;;;2.58;1.13;;;22.30;90.90;;;;;;4942637;29;20039;-62
2023/07/01 08:04:35;;;;;;;1.73;1.13;;;22.30;90.40;;;;;;4942634;29;20401;-62
2023/07/01 08:07:01;;;;;;;2.83;1.05;;;22.30;91.40;;;;;;4938957;29;20086;-62
2023/07/01 08:09:27;;;;;;;3.10;1.50;;;22.30;90.30;;;;;;4939061;29;20693;-62
2023/07/01 08:11:53;;;;;;;2.42;1.45;;;22.40;90.60;;;;;;4939074;29;20920;-64
2023/07/01 08:14:19;;;;;;;5.90;1.50;;;22.40;88.00;;;;;;4935475;29;20040;-63
2023/07/01 08:16:45;;;;;;;2.03;1.42;;;22.40;87.80;;;;;;4941614;29;20023;-63
2023/07/01 08:19:11;;;;;;;3.42;1.30;;;22.40;86.00;;;;;;4944031;29;20035;-63
2023/07/01 08:21:38;;;;;;;3.63;1.52;;;22.30;85.10;;;;;;4942137;29;20546;-63
2023/07/01 08:24:08;;;;;;;1.65;1.30;;;22.30;88.00;;;;;;4941307;29;20023;-62
2023/07/01 08:26:34;;;;;;;5.25;1.50;;;22.30;90.20;;;;;;4940163;29;20131;-62
2023/07/01 08:28:59;;;;;;;2.45;1.30;;;22.50;89.20;;;;;;4938852;29;20122;-62
2023/07/01 08:31:25;;;;;;;4.05;1.27;;;22.50;88.70;;;;;;4936342;29;20043;-62
2023/07/01 08:33:51;;;;;;;3.80;1.40;;;22.50;88.30;;;;;;4937710;29;20115;-63
2023/07/01 08:36:17;;;;;;;6.03;1.67;;;22.50;88.20;;;;;;4943101;28;20061;-63
2023/07/01 08:38:42;;;;;;;2.38;1.40;;;22.60;86.60;;;;;;4942356;29;20182;-62
2023/07/01 08:41:13;;;;;;;7.05;2.25;;;22.60;86.20;;;;;;4940466;29;20035;-62
2023/07/01 08:43:39;;;;;;;5.22;1.83;;;22.70;85.10;;;;;;4940745;29;20431;-62
2023/07/01 08:46:09;;;;;;;2.13;1.38;;;22.70;84.30;;;;;;4938689;29;20038;-62
2023/07/01 08:48:37;;;;;;;3.10;1.45;;;22.80;85.80;;;;;;4938641;29;20161;-62
2023/07/01 08:51:23;;;;;;;2.75;1.67;;;22.80;83.00;;;;;;4935309;29;20039;-62
2023/07/01 08:53:51;;;;;;;2.85;1.45;;;23.00;82.60;;;;;;4942250;29;20479;-63
2023/07/01 08:56:21;;;;;;;2.70;1.38;;;22.90;82.80;;;;;;4946261;29;20063;-62
2023/07/01 08:58:48;;;;;;;5.75;1.60;;;23.00;88.00;;;;;;4945651;29;20035;-62
2023/07/01 09:01:15;;;;;;;2.42;1.60;;;23.10;86.40;;;;;;4936679;29;20491;-62
2023/07/01 09:03:41;;;;;;;5.70;1.50;;;23.30;82.10;;;;;;4936195;29;20575;-62
2023/07/01 09:06:07;;;;;;;2.15;1.65;;;23.30;81.30;;;;;;4938813;29;20031;-62
2023/07/01 09:08:38;;;;;;;2.30;1.35;;;23.30;82.60;;;;;;4938619;29;20045;-61
2023/07/01 09:11:04;;;;;;;4.40;1.60;;;23.20;78.70;;;;;;4939662;29;20075;-62
2023/07/01 09:13:30;;;;;;;1.90;1.50;;;23.20;77.80;;;;;;4942036;29;20031;-61
2023/07/01 09:15:56;;;;;;;3.28;1.45;;;23.10;77.60;;;;;;4941853;29;20034;-65
2023/07/01 09:18:28;;;;;;;2.28;1.27;;;23.10;80.80;;;;;;4920936;29;20035;-61
2023/07/01 09:20:54;;;;;;;1.55;1.40;;;23.00;77.90;;;;;;4937849;29;20447;-61
2023/07/01 09:23:34;;;;;;;4.00;1.65;;;23.00;81.30;;;;;;4935437;29;20035;-62
2023/07/01 09:26:10;;;;;;;2.03;1.70;;;23.20;83.20;;;;;;4935756;29;20035;-62
2023/07/01 09:28:36;;;;;;;3.50;1.40;;;23.40;80.10;;;;;;4943440;29;20046;-63
2023/07/01 09:31:04;;;;;;;3.97;1.80;;;23.50;79.30;;;;;;4938800;29;20038;-62
2023/07/01 09:33:31;;;;;;;2.80;1.58;;;23.50;81.00;;;;;;4935011;29;20090;-62
2023/07/01 09:36:01;;;;;;;2.22;1.40;;;23.60;80.70;;;;;;4938878;29;20122;-62
2023/07/01 09:38:31;;;;;;;3.10;1.33;;;23.70;80.40;;;;;;4937677;29;20047;-63
2023/07/01 09:41:17;;;;;;;2.33;1.52;;;23.80;79.00;;;;;;4936044;29;20065;-62
2023/07/01 09:43:43;;;;;;;3.65;2.08;;;23.70;78.00;;;;;;4936338;29;20114;-62
2023/07/01 09:46:09;;;;;;;4.72;1.73;;;23.90;79.30;;;;;;4940629;29;20246;-62
2023/07/01 09:48:36;;;;;;;2.38;1.40;;;24.00;75.80;;;;;;4938656;29;20043;-62
2023/07/01 09:51:05;;;;;;;4.03;1.55;;;24.10;76.70;;;;;;4940119;29;20027;-62
2023/07/01 09:53:34;;;;;;;3.72;1.42;;;24.00;75.90;;;;;;4943970;29;20504;-62
2023/07/01 09:56:04;;;;;;;4.57;1.65;;;23.90;77.90;;;;;;4944909;29;20039;-62
2023/07/01 09:58:34;;;;;;;2.00;1.23;;;23.90;80.40;;;;;;4943020;29;20785;-61
2023/07/01 10:01:00;;;;;;;8.77;1.58;;;23.90;79.30;;;;;;4940936;29;20087;-61
2023/07/01 10:03:26;;;;;;;5.97;1.95;;;24.00;77.00;;;;;;4941874;29;20510;-61
2023/07/01 10:05:53;;;;;;;3.55;1.50;;;23.90;77.70;;;;;;4946477;29;20039;-63
2023/07/01 10:08:20;;;;;;;5.82;1.55;;;23.90;80.40;;;;;;4944457;29;20146;-62
2023/07/01 10:11:00;;;;;;;4.45;1.48;;;24.00;79.50;;;;;;4944146;29;20027;-61
2023/07/01 10:13:28;;;;;;;2.65;1.45;;;24.20;77.10;;;;;;4941121;29;20835;-62
2023/07/01 10:15:54;;;;;;;3.38;1.42;;;24.30;81.00;;;;;;4941746;29;20031;-62
2023/07/01 10:18:21;;;;;;;3.83;1.73;;;24.20;76.20;;;;;;4937891;29;20492;-62
2023/07/01 10:20:48;;;;;;;4.13;1.70;;;24.10;77.10;;;;;;4943807;29;20054;-62
2023/07/01 10:23:14;;;;;;;3.78;2.00;;;24.00;78.30;;;;;;4945025;29;20039;-61
2023/07/01 10:25:41;;;;;;;4.30;2.10;;;23.90;78.80;;;;;;4942622;29;20031;-61
2023/07/01 10:28:11;;;;;;;6.22;2.58;;;24.00;80.90;;;;;;4943089;29;20038;-62
2023/07/01 10:30:46;;;;;;;5.65;1.58;;;24.10;80.20;;;;;;4942394;29;20060;-62
2023/07/01 10:33:30;;;;;;;4.70;1.67;;;24.00;79.80;;;;;;4938700;29;20468;-62
2023/07/01 10:36:03;;;;;;;3.47;1.80;;;24.10;81.00;;;;;;4936828;29;20137;-61
2023/07/01 10:38:30;;;;;;;2.60;1.70;;;24.10;80.00;;;;;;4941906;29;20083;-61
2023/07/01 10:40:56;;;;;;;3.47;1.95;;;24.20;78.30;;;;;;4946048;29;20023;-62
2023/07/01 10:43:30;;;;;;;3.83;1.73;;;24.30;78.80;;;;;;4943530;29;20110;-62
2023/07/01 10:46:10;;;;;;;2.72;1.55;;;24.40;79.20;;;;;;4944026;29;20790;-63
2023/07/01 10:48:40;;;;;;;4.68;1.77;;;24.60;78.90;;;;;;4942107;29;20039;-61
2023/07/01 10:51:11;;;;;;;5.40;1.77;;;24.80;79.30;;;;;;4939503;29;20039;-61
2023/07/01 10:53:58;;;;;;;5.60;1.70;;;24.80;75.60;;;;;;4937034;29;20448;-62
2023/07/01 10:56:25;;;;;;;3.53;1.80;;;25.00;76.80;;;;;;4933474;29;20047;-61
2023/07/01 10:59:20;;;;;;;8.00;1.65;;;25.10;75.00;;;;;;4942921;29;20054;-61
2023/07/01 11:01:51;;;;;;;2.90;1.70;;;25.10;72.90;;;;;;4927217;29;20042;-62
2023/07/01 11:04:20;;;;;;;5.43;1.85;;;25.20;75.30;;;;;;4939696;29;20035;-62
2023/07/01 11:06:56;;;;;;;4.28;1.58;;;25.20;74.30;;;;;;4942780;29;20130;-62
2023/07/01 11:09:34;;;;;;;4.43;1.60;;;25.40;72.40;;;;;;4939287;29;20043;-62
2023/07/01 11:12:02;;;;;;;5.43;1.73;;;25.40;75.10;;;;;;4938842;29;20043;-62
2023/07/01 11:14:32;;;;;;;4.35;1.75;;;25.30;72.60;;;;;;4945242;29;20035;-61
2023/07/01 11:17:15;;;;;;;3.40;1.77;;;25.20;75.90;;;;;;4946161;29;20040;-62
2023/07/01 11:19:41;;;;;;;4.10;1.58;;;25.20;73.60;;;;;;4941829;29;20106;-62
2023/07/01 11:22:11;;;;;;;4.05;1.40;;;25.30;75.30;;;;;;4940102;29;20038;-62
2023/07/01 11:24:37;;;;;;;1.73;1.50;;;25.30;73.70;;;;;;4941876;29;20051;-62
2023/07/01 11:27:07;;;;;;;3.22;1.83;;;25.50;73.40;;;;;;4939885;29;20544;-62
2023/07/01 11:29:34;;;;;;;5.82;1.80;;;25.50;71.90;;;;;;4939629;29;20107;-62
2023/07/01 11:32:07;;;;;;;4.55;1.80;;;25.60;71.90;;;;;;4935407;29;20045;-62
2023/07/01 11:34:33;;;;;;;2.03;1.63;;;25.70;70.50;;;;;;4941672;29;20046;-62
2023/07/01 11:37:00;;;;;;;7.45;2.10;;;25.60;68.90;;;;;;4944751;29;20031;-62
2023/07/01 11:39:26;;;;;;;8.75;2.33;;;25.60;70.80;;;;;;4942126;29;20650;-62
2023/07/01 11:41:54;;;;;;;5.28;2.80;;;25.70;69.50;;;;;;4942080;29;20026;-62
2023/07/01 11:44:22;;;;;;;2.53;1.83;;;25.80;68.80;;;;;;4936409;29;20039;-62
2023/07/01 11:46:49;;;;;;;5.78;1.70;;;25.80;67.10;;;;;;4939537;29;20655;-61
2023/07/01 11:49:21;;;;;;;3.78;1.58;;;25.80;69.10;;;;;;4940762;29;20789;-62
2023/07/01 11:51:55;;;;;;;3.58;1.95;;;25.70;70.50;;;;;;4942929;29;20122;-61
2023/07/01 13:06:54;;;;;;;3.35;1.58;;;24.80;66.30;;;;;;4921823;29;20068;-60
2023/07/01 13:14:37;;;;;;;3.08;1.58;;;24.40;69.80;;;;;;4943719;28;20149;-60
2023/07/01 13:17:03;;;;;;;3.55;1.92;;;24.40;69.40;;;;;;4940109;29;20027;-59
2023/07/01 13:19:29;;;;;;;3.13;1.70;;;24.20;69.20;;;;;;4944908;29;20034;-59
2023/07/01 13:21:55;;;;;;;5.00;1.80;;;24.20;69.60;;;;;;4934187;29;20020;-59
2023/07/01 13:24:20;;;;;;;2.80;2.03;;;24.10;69.40;;;;;;4918657;29;20477;-60
2023/07/01 13:26:47;;;;;;;8.13;3.10;;;24.10;69.40;;;;;;4918725;29;20055;-60
2023/07/01 13:29:18;;;;;;;3.33;2.25;;;24.10;69.50;;;;;;4924959;29;20044;-60
2023/07/01 13:31:45;;;;;;;13.82;2.17;;;24.10;69.10;;;;;;4923568;29;20047;-59
2023/07/01 13:34:12;;;;;;;3.08;1.90;;;24.10;68.80;;;;;;4921386;29;20080;-60
2023/07/01 13:36:42;;;;;;;1.98;1.77;;;24.10;69.80;;;;;;4922031;29;20039;-60
2023/07/01 13:39:24;;;;;;;2.50;1.65;;;24.00;69.80;;;;;;4919639;29;20118;-59
2023/07/01 13:41:51;;;;;;;3.78;1.85;;;24.00;70.20;;;;;;4908585;29;20492;-59
2023/07/01 13:44:22;;;;;;;3.72;1.75;;;24.00;71.10;;;;;;4907684;29;20035;-59
2023/07/01 13:46:50;;;;;;;3.35;1.80;;;24.00;72.60;;;;;;4925139;29;20031;-59
2023/07/01 13:49:23;;;;;;;2.80;1.55;;;24.00;73.40;;;;;;4922516;29;20032;-59
2023/07/01 13:51:50;;;;;;;6.43;1.95;;;24.00;73.80;;;;;;4920439;29;20043;-59
2023/07/01 13:54:22;;;;;;;3.97;1.80;;;24.00;74.20;;;;;;4920357;29;20103;-59
2023/07/01 13:56:49;;;;;;;2.22;1.70;;;24.10;74.00;;;;;;4920734;29;20516;-59
2023/07/01 13:59:18;;;;;;;2.88;1.70;;;24.10;74.20;;;;;;4918033;29;20052;-61
2023/07/01 14:02:05;;;;;;;3.40;1.73;;;24.10;75.60;;;;;;4899588;29;20024;-63
2023/07/01 14:04:32;;;;;;;2.50;1.98;;;24.10;74.30;;;;;;4918354;29;20039;-61
2023/07/01 14:07:03;;;;;;;6.07;1.90;;;24.10;72.70;;;;;;4922801;29;20111;-62